Terminal Aerodrome Forecast
Issued by NWS

Home | Current Version | Previous Version | Text Only | Print | Product List | Glossary On
Versions: 1 2 3 4 5 6 7 8 9 10 11 12 13 14
165
FTUS42 TJSJ 141130
TAFJMZ
TAF
TJMZ 141130Z 1412/1512 29011KT P6SM BKN040
     FM141500 29006KT P6SM SCT040
     FM141730 VRB06KT P6SM VCTS BKN030CB
     FM142230 07005KT P6SM VCSH SCT050
      AMD NOT SKED=

USA.gov is the U.S. government's official web portal to all federal, state and local government web resources and services.